createdAt,value
2022-07-26T00:01:19.984Z,100848.84
2022-07-26T00:03:49.452Z,100848.84
2022-07-26T00:06:18.997Z,100851.03
2022-07-26T00:08:48.957Z,100844.22
2022-07-26T00:11:17.294Z,100847.47
2022-07-26T00:13:45.575Z,100843.53
2022-07-26T00:16:13.792Z,100845.44
2022-07-26T00:18:42.047Z,100838.84
2022-07-26T00:21:09.973Z,100850.38
2022-07-26T00:23:39.845Z,100846.16
2022-07-26T00:26:09.458Z,100850.63
2022-07-26T00:28:37.467Z,100843.44
2022-07-26T00:31:05.994Z,100847.31
2022-07-26T00:33:34.138Z,100847.16
2022-07-26T00:36:02.255Z,100851.88
2022-07-26T00:38:30.247Z,100849.44
2022-07-26T00:40:58.663Z,100852.03
2022-07-26T00:43:28.417Z,100851.63
2022-07-26T00:45:56.676Z,100849.44
2022-07-26T00:48:24.944Z,100856.91
2022-07-26T00:50:55.330Z,100850.63
2022-07-26T00:53:24.430Z,100856.13
2022-07-26T00:55:52.695Z,100853.41
2022-07-26T00:58:20.629Z,100857.41
2022-07-26T01:00:50.155Z,100861.53
2022-07-26T01:03:18.192Z,100853.09
2022-07-26T01:05:47.046Z,100855.19
2022-07-26T01:08:15.136Z,100852.63
2022-07-26T01:10:43.857Z,100854.66
2022-07-26T01:13:12.212Z,100854.81
2022-07-26T01:15:40.487Z,100857.81
2022-07-26T01:18:09.961Z,100856.13
2022-07-26T01:20:38.436Z,100843.88
2022-07-26T01:23:08.909Z,100844.03
2022-07-26T01:25:43.159Z,100852.00
2022-07-26T01:28:12.093Z,100845.13
2022-07-26T01:30:48.581Z,100846.28
2022-07-26T01:33:17.093Z,100839.59
2022-07-26T01:35:45.405Z,100844.47
2022-07-26T01:38:14.824Z,100847.25
2022-07-26T01:40:42.827Z,100846.91
2022-07-26T01:43:10.738Z,100838.72
2022-07-26T01:45:38.876Z,100851.03
2022-07-26T01:48:08.634Z,100844.31
2022-07-26T01:50:37.414Z,100847.44
2022-07-26T01:53:08.197Z,100848.88
2022-07-26T01:55:38.164Z,100845.19
2022-07-26T01:58:06.926Z,100837.88
2022-07-26T02:00:35.242Z,100832.31
2022-07-26T02:03:03.918Z,100836.75
2022-07-26T02:05:32.169Z,100842.31
2022-07-26T02:08:00.209Z,100836.03
2022-07-26T02:10:50.456Z,100839.34
2022-07-26T02:13:19.836Z,100839.06
2022-07-26T02:15:47.904Z,100842.31
2022-07-26T02:18:16.111Z,100837.84
2022-07-26T02:20:44.394Z,100841.44
2022-07-26T02:23:12.934Z,100838.72
2022-07-26T02:25:41.057Z,100841.13
2022-07-26T02:28:09.051Z,100851.94
2022-07-26T02:30:38.372Z,100848.97
2022-07-26T02:33:07.473Z,100846.69
2022-07-26T02:35:35.537Z,100844.84
2022-07-26T02:38:04.769Z,100844.16
2022-07-26T02:40:33.237Z,100847.81
2022-07-26T02:43:01.429Z,100850.81
2022-07-26T02:45:31.692Z,100848.97
2022-07-26T02:48:01.139Z,100854.81
2022-07-26T02:50:30.226Z,100853.13
2022-07-26T02:52:58.273Z,100853.91
2022-07-26T02:55:28.339Z,100857.63
2022-07-26T02:57:56.282Z,100854.63
2022-07-26T03:00:26.666Z,100858.28
2022-07-26T03:02:55.673Z,100857.63
2022-07-26T03:05:25.441Z,100864.53
2022-07-26T03:07:53.764Z,100866.69
2022-07-26T03:10:21.935Z,100870.97
2022-07-26T03:12:49.874Z,100867.00
2022-07-26T03:15:18.314Z,100873.69
2022-07-26T03:17:46.327Z,100875.75
2022-07-26T03:20:14.694Z,100879.00
2022-07-26T03:22:44.226Z,100875.72
2022-07-26T03:25:12.280Z,100879.72
2022-07-26T03:27:40.234Z,100891.41
2022-07-26T03:30:09.489Z,100886.69
2022-07-26T03:32:37.552Z,100876.69
2022-07-26T03:35:06.630Z,100875.31
2022-07-26T03:37:44.171Z,100879.00
2022-07-26T03:40:16.533Z,100879.31
2022-07-26T03:42:45.330Z,100878.91
2022-07-26T03:45:14.431Z,100884.31
2022-07-26T03:47:43.414Z,100879.44
2022-07-26T03:50:13.732Z,100873.31
2022-07-26T03:52:42.186Z,100877.28
2022-07-26T03:55:28.938Z,100877.66
2022-07-26T03:57:58.437Z,100876.09
2022-07-26T04:00:26.563Z,100882.53
2022-07-26T04:02:54.700Z,100877.41
2022-07-26T04:05:23.749Z,100878.41
2022-07-26T04:07:54.737Z,100876.09
2022-07-26T04:10:24.358Z,100874.19
2022-07-26T04:12:52.245Z,100885.09
2022-07-26T04:15:21.788Z,100885.97
2022-07-26T04:17:49.739Z,100881.41
2022-07-26T04:20:18.167Z,100886.44
2022-07-26T04:22:46.385Z,100886.66
2022-07-26T04:25:14.481Z,100882.94
2022-07-26T04:27:42.387Z,100887.56
2022-07-26T04:30:15.189Z,100890.72
2022-07-26T04:32:45.911Z,100885.63
2022-07-26T04:35:15.208Z,100893.84
2022-07-26T04:37:43.685Z,100891.44
2022-07-26T04:40:13.356Z,100891.03
2022-07-26T04:42:42.233Z,100899.38
2022-07-26T04:45:12.739Z,100894.94
2022-07-26T04:47:44.459Z,100901.06
2022-07-26T04:50:13.672Z,100903.78
2022-07-26T04:52:43.425Z,100909.88
2022-07-26T04:55:12.161Z,100906.00
2022-07-26T04:57:40.384Z,100915.84
2022-07-26T05:00:27.235Z,100912.66
2022-07-26T05:02:58.902Z,100909.47
2022-07-26T05:05:29.621Z,100920.06
2022-07-26T05:07:59.675Z,100918.81
2022-07-26T05:10:31.436Z,100909.75
2022-07-26T05:12:59.566Z,100920.63
2022-07-26T05:15:35.349Z,100922.31
2022-07-26T05:18:08.828Z,100914.34
2022-07-26T05:20:39.254Z,100912.66
2022-07-26T05:23:07.325Z,100935.91
2022-07-26T05:25:35.657Z,100939.91
2022-07-26T05:28:03.570Z,100939.81
2022-07-26T05:30:31.764Z,100931.84
2022-07-26T05:32:59.874Z,100933.41
2022-07-26T05:35:29.227Z,100942.09
2022-07-26T05:37:57.230Z,100941.38
2022-07-26T05:40:25.335Z,100942.25
2022-07-26T05:42:53.299Z,100948.34
2022-07-26T05:45:21.483Z,100942.09
2022-07-26T05:47:51.409Z,100951.63
2022-07-26T05:50:19.911Z,100953.06
2022-07-26T05:52:49.282Z,100955.59
2022-07-26T05:55:17.424Z,100955.03
2022-07-26T05:58:00.498Z,100948.19
2022-07-26T06:00:28.713Z,100963.00
2022-07-26T06:02:56.733Z,100961.88
2022-07-26T06:05:24.728Z,100960.84
2022-07-26T06:07:54.261Z,100965.25
2022-07-26T06:10:22.194Z,100963.16
2022-07-26T06:12:50.137Z,100970.38
2022-07-26T06:15:18.173Z,100966.22
2022-07-26T06:17:46.113Z,100973.13
2022-07-26T06:20:14.067Z,100977.41
2022-07-26T06:22:42.288Z,100984.31
2022-07-26T06:25:11.693Z,100980.28
2022-07-26T06:27:39.683Z,100980.03
2022-07-26T06:30:10.106Z,100990.16
2022-07-26T06:32:38.047Z,100994.66
2022-07-26T06:35:06.745Z,100994.59
2022-07-26T06:37:37.547Z,100996.53
2022-07-26T06:40:06.425Z,100991.72
2022-07-26T06:42:35.768Z,100992.00
2022-07-26T06:45:05.314Z,100988.09
2022-07-26T06:47:33.916Z,100989.22
2022-07-26T06:50:01.934Z,100999.06
2022-07-26T06:52:30.063Z,100997.56
2022-07-26T06:54:57.958Z,101000.31
2022-07-26T06:57:25.893Z,100989.91
2022-07-26T06:59:55.390Z,100997.84
2022-07-26T07:02:23.296Z,101019.94
2022-07-26T07:04:51.245Z,101008.38
2022-07-26T07:07:19.393Z,101016.53
2022-07-26T07:09:47.443Z,101029.22
2022-07-26T07:12:15.791Z,101031.41
2022-07-26T07:14:43.979Z,101042.31
2022-07-26T07:17:18.467Z,101034.00
2022-07-26T07:19:48.241Z,101044.63
2022-07-26T07:22:16.327Z,101036.56
2022-07-26T07:24:44.697Z,101039.59
2022-07-26T07:27:14.841Z,101054.56
2022-07-26T07:29:43.761Z,101046.59
2022-07-26T07:32:18.089Z,101046.22
2022-07-26T07:34:47.646Z,101049.22
2022-07-26T07:37:15.859Z,101056.34
2022-07-26T07:39:43.972Z,101060.53
2022-07-26T07:42:17.026Z,101067.25
2022-07-26T07:44:45.061Z,101069.44
2022-07-26T07:47:14.772Z,101088.16
2022-07-26T07:49:42.954Z,101097.47
2022-07-26T07:52:10.821Z,101112.72
2022-07-26T07:54:38.763Z,101110.59
2022-07-26T07:57:06.784Z,101121.03
2022-07-26T07:59:37.091Z,101119.28
2022-07-26T08:02:07.960Z,101116.91
2022-07-26T08:04:37.391Z,101117.41
2022-07-26T08:07:05.510Z,101131.63
2022-07-26T08:09:34.152Z,101122.91
2022-07-26T08:12:02.348Z,101121.50
2022-07-26T08:14:30.399Z,101122.41
2022-07-26T08:16:58.737Z,101121.06
2022-07-26T08:19:32.175Z,101117.03
2022-07-26T08:22:12.265Z,101120.28
2022-07-26T08:24:40.611Z,101117.50
2022-07-26T08:27:08.666Z,101111.59
2022-07-26T08:29:36.735Z,101118.16
2022-07-26T08:32:05.031Z,101122.75
2022-07-26T08:34:33.164Z,101122.47
2022-07-26T08:37:16.483Z,101124.22
2022-07-26T08:39:47.797Z,101131.75
2022-07-26T08:42:17.096Z,101147.69
2022-07-26T08:44:51.843Z,101158.81
2022-07-26T08:47:35.277Z,101171.75
2022-07-26T08:50:07.008Z,101181.84
2022-07-26T08:52:35.297Z,101176.69
2022-07-26T08:55:05.016Z,101177.34
2022-07-26T08:57:32.976Z,101176.19
2022-07-26T09:00:20.185Z,101177.53
2022-07-26T09:02:48.917Z,101184.50
2022-07-26T09:05:19.247Z,101194.72
2022-07-26T09:07:47.432Z,101206.84
2022-07-26T09:10:17.365Z,101206.31
2022-07-26T09:12:46.036Z,101221.25
2022-07-26T09:15:21.999Z,101214.25
2022-07-26T09:17:52.327Z,101223.81
2022-07-26T09:20:25.744Z,101232.03
2022-07-26T09:23:02.554Z,101239.66
2022-07-26T09:25:33.618Z,101237.47
2022-07-26T09:28:01.958Z,101239.88
2022-07-26T09:30:32.021Z,101248.63
2022-07-26T09:33:03.586Z,101242.22
2022-07-26T09:35:51.379Z,101236.41
2022-07-26T09:38:20.640Z,101241.53
2022-07-26T09:40:51.427Z,101232.13
2022-07-26T09:43:24.584Z,101237.38
2022-07-26T09:46:04.876Z,101244.13
2022-07-26T09:48:59.575Z,101242.94
2022-07-26T09:51:37.333Z,101256.31
2022-07-26T09:54:05.725Z,101256.69
2022-07-26T09:56:46.479Z,101265.81
2022-07-26T09:59:16.542Z,101254.53
2022-07-26T10:01:44.935Z,101256.09
2022-07-26T10:04:14.079Z,101261.84
2022-07-26T10:06:43.276Z,101267.22
2022-07-26T10:09:11.923Z,101274.50
2022-07-26T10:11:47.335Z,101283.66
2022-07-26T10:14:38.282Z,101279.94
2022-07-26T10:17:40.022Z,101280.19
2022-07-26T10:20:17.259Z,101283.00
2022-07-26T10:22:50.686Z,101277.19
2022-07-26T10:25:47.678Z,101279.31
2022-07-26T10:28:27.825Z,101285.75
2022-07-26T10:31:24.517Z,101285.34
2022-07-26T10:33:54.661Z,101289.28
2022-07-26T10:36:24.207Z,101284.22
2022-07-26T10:39:10.408Z,101291.88
2022-07-26T10:41:44.033Z,101285.19
2022-07-26T10:44:19.241Z,101293.16
2022-07-26T10:46:57.975Z,101289.34
2022-07-26T10:49:31.526Z,101298.59
2022-07-26T10:52:14.957Z,101292.28
2022-07-26T10:55:17.294Z,101295.28
2022-07-26T10:57:47.603Z,101300.88
2022-07-26T11:00:19.939Z,101308.69
2022-07-26T11:03:05.693Z,101312.97
2022-07-26T11:05:35.126Z,101318.72
2022-07-26T11:08:12.144Z,101325.81
2022-07-26T11:10:41.864Z,101322.56
2022-07-26T11:13:15.768Z,101325.81
2022-07-26T11:15:47.354Z,101324.47
2022-07-26T11:18:22.300Z,101330.94
2022-07-26T11:20:55.542Z,101341.63
2022-07-26T11:23:32.506Z,101349.31
2022-07-26T11:26:11.733Z,101339.91
2022-07-26T11:28:50.868Z,101345.41
2022-07-26T11:31:22.562Z,101341.16
2022-07-26T11:33:57.630Z,101342.78
2022-07-26T11:36:37.108Z,101342.91
2022-07-26T11:39:07.616Z,101336.34
2022-07-26T11:41:36.184Z,101332.81
2022-07-26T11:44:05.907Z,101332.09
2022-07-26T11:46:37.654Z,101341.13
2022-07-26T11:49:13.247Z,101337.66
2022-07-26T11:51:41.473Z,101348.28
2022-07-26T11:54:09.572Z,101347.06
2022-07-26T11:56:37.910Z,101351.00
2022-07-26T11:59:06.277Z,101355.56
2022-07-26T12:01:35.641Z,101349.19
2022-07-26T12:04:03.794Z,101350.59
2022-07-26T12:06:39.815Z,101358.69
2022-07-26T12:09:07.992Z,101369.13
2022-07-26T12:11:41.707Z,101352.28
2022-07-26T12:14:12.538Z,101366.94
2022-07-26T12:16:47.224Z,101376.56
2022-07-26T12:19:29.875Z,101376.44
2022-07-26T12:22:00.544Z,101382.59
2022-07-26T12:24:47.289Z,101374.38
2022-07-26T12:27:19.701Z,101382.75
2022-07-26T12:29:49.354Z,101376.53
2022-07-26T12:32:20.684Z,101382.59
2022-07-26T12:35:00.556Z,101386.47
2022-07-26T12:37:39.513Z,101391.66
2022-07-26T12:40:11.144Z,101397.34
2022-07-26T12:42:40.943Z,101381.56
2022-07-26T12:45:10.755Z,101375.25
2022-07-26T12:47:42.021Z,101377.69
2022-07-26T12:50:12.069Z,101383.09
2022-07-26T12:52:40.565Z,101377.06
2022-07-26T12:55:11.571Z,101381.25
2022-07-26T12:57:45.918Z,101390.03
2022-07-26T13:00:17.827Z,101393.16
2022-07-26T13:02:47.656Z,101393.09
2022-07-26T13:05:16.980Z,101392.13
2022-07-26T13:07:45.099Z,101405.94
2022-07-26T13:10:32.411Z,101407.50
2022-07-26T13:13:01.666Z,101403.50
2022-07-26T13:15:35.048Z,101409.44
2022-07-26T13:18:08.354Z,101413.75
2022-07-26T13:20:39.273Z,101403.78
2022-07-26T13:23:11.624Z,101417.28
2022-07-26T13:25:42.194Z,101401.75
2022-07-26T13:28:10.994Z,101409.22
2022-07-26T13:30:43.285Z,101412.94
2022-07-26T13:33:13.173Z,101408.75
2022-07-26T13:35:42.725Z,101415.44
2022-07-26T13:38:11.155Z,101420.41
2022-07-26T13:40:39.368Z,101418.72
2022-07-26T13:43:07.366Z,101403.91
2022-07-26T13:45:35.589Z,101418.72
2022-07-26T13:48:03.799Z,101429.50
2022-07-26T13:50:33.140Z,101428.06
2022-07-26T13:53:01.220Z,101424.16
2022-07-26T13:55:29.293Z,101422.03
2022-07-26T13:57:58.328Z,101422.38
2022-07-26T14:00:27.487Z,101434.34
2022-07-26T14:02:55.820Z,101433.81
2022-07-26T14:05:24.197Z,101437.66
2022-07-26T14:07:54.249Z,101443.69
2022-07-26T14:10:23.074Z,101448.41
2022-07-26T14:12:51.334Z,101454.66
2022-07-26T14:15:22.565Z,101459.75
2022-07-26T14:17:51.555Z,101472.28
2022-07-26T14:20:20.107Z,101464.06
2022-07-26T14:22:49.212Z,101471.81
2022-07-26T14:25:18.517Z,101464.75
2022-07-26T14:27:46.806Z,101462.94
2022-07-26T14:30:15.428Z,101458.47
2022-07-26T14:32:43.464Z,101457.22
2022-07-26T14:35:12.113Z,101459.31
2022-07-26T14:37:42.546Z,101465.22
2022-07-26T14:40:14.445Z,101454.00
2022-07-26T14:42:43.717Z,101463.91
2022-07-26T14:45:12.062Z,101475.31
2022-07-26T14:47:40.469Z,101471.91
2022-07-26T14:50:10.266Z,101481.41
2022-07-26T14:52:39.258Z,101485.03
2022-07-26T14:55:08.288Z,101478.47
2022-07-26T14:57:39.680Z,101474.09
2022-07-26T15:00:12.485Z,101482.88
2022-07-26T15:02:41.689Z,101481.63
2022-07-26T15:05:10.717Z,101473.78
2022-07-26T15:07:39.199Z,101489.75
2022-07-26T15:10:08.648Z,101473.16
2022-07-26T15:12:36.673Z,101479.63
2022-07-26T15:15:05.225Z,101481.88
2022-07-26T15:17:34.509Z,101488.00
2022-07-26T15:20:02.655Z,101493.88
2022-07-26T15:22:30.671Z,101492.97
2022-07-26T15:24:58.617Z,101478.00
2022-07-26T15:27:26.507Z,101479.06
2022-07-26T15:29:58.264Z,101485.72
2022-07-26T15:32:30.565Z,101487.41
2022-07-26T15:35:00.081Z,101494.97
2022-07-26T15:37:28.091Z,101488.53
2022-07-26T15:39:56.119Z,101493.16
2022-07-26T15:42:24.051Z,101495.25
2022-07-26T15:44:52.822Z,101489.34
2022-07-26T15:47:51.246Z,101483.44
2022-07-26T15:50:14.138Z,101483.88
2022-07-26T15:52:45.046Z,101497.75
2022-07-26T15:55:13.881Z,101490.63
2022-07-26T15:57:42.153Z,101483.91
2022-07-26T16:00:12.686Z,101491.19
2022-07-26T16:02:42.058Z,101495.72
2022-07-26T16:05:12.591Z,101490.19
2022-07-26T16:07:41.561Z,101493.22
2022-07-26T16:10:12.507Z,101494.59
2022-07-26T16:12:40.823Z,101493.31
2022-07-26T16:15:11.194Z,101496.59
2022-07-26T16:17:40.205Z,101492.34
2022-07-26T16:20:09.249Z,101490.19
2022-07-26T16:22:41.210Z,101497.63
2022-07-26T16:25:12.759Z,101491.03
2022-07-26T16:27:41.461Z,101489.78
2022-07-26T16:30:10.427Z,101481.66
2022-07-26T16:32:38.363Z,101489.75
2022-07-26T16:35:07.129Z,101504.16
2022-07-26T16:37:35.013Z,101501.00
2022-07-26T16:40:05.206Z,101510.16
2022-07-26T16:42:33.307Z,101510.75
2022-07-26T16:45:01.347Z,101519.16
2022-07-26T16:47:29.357Z,101516.47
2022-07-26T16:49:57.480Z,101517.44
2022-07-26T16:52:25.430Z,101517.31
2022-07-26T16:54:53.368Z,101518.03
2022-07-26T16:57:22.905Z,101518.72
2022-07-26T16:59:51.060Z,101514.75
2022-07-26T17:02:19.119Z,101523.38
2022-07-26T17:04:47.109Z,101510.22
2022-07-26T17:07:25.191Z,101521.66
2022-07-26T17:09:54.278Z,101520.00
2022-07-26T17:12:24.484Z,101524.16
2022-07-26T17:14:53.026Z,101516.13
2022-07-26T17:17:21.042Z,101523.91
2022-07-26T17:19:49.553Z,101523.31
2022-07-26T17:22:17.908Z,101517.34
2022-07-26T17:24:46.084Z,101510.63
2022-07-26T17:27:14.108Z,101521.19
2022-07-26T17:29:43.821Z,101518.44
2022-07-26T17:32:11.917Z,101520.59
2022-07-26T17:34:40.018Z,101518.28
2022-07-26T17:37:09.943Z,101520.03
2022-07-26T17:39:52.792Z,101514.31
2022-07-26T17:42:21.939Z,101516.44
2022-07-26T17:44:51.674Z,101519.53
2022-07-26T17:47:28.975Z,101509.34
2022-07-26T17:50:14.090Z,101522.50
2022-07-26T17:52:47.071Z,101520.59
2022-07-26T17:55:15.120Z,101519.94
2022-07-26T17:57:43.227Z,101521.34
2022-07-26T18:00:14.041Z,101517.19
2022-07-26T18:02:42.125Z,101512.91
2022-07-26T18:05:11.107Z,101517.72
2022-07-26T18:07:40.530Z,101514.81
2022-07-26T18:10:10.129Z,101523.84
2022-07-26T18:12:38.105Z,101508.22
2022-07-26T18:15:07.423Z,101520.63
2022-07-26T18:17:36.713Z,101517.72
2022-07-26T18:20:05.702Z,101518.03
2022-07-26T18:22:33.780Z,101517.06
2022-07-26T18:25:01.978Z,101517.84
2022-07-26T18:27:30.240Z,101521.78
2022-07-26T18:29:58.532Z,101530.72
2022-07-26T18:32:26.973Z,101534.19
2022-07-26T18:34:56.281Z,101529.75
2022-07-26T18:37:24.260Z,101531.81
2022-07-26T18:39:57.375Z,101536.78
2022-07-26T18:42:25.917Z,101540.72
2022-07-26T18:44:54.164Z,101541.03
2022-07-26T18:47:22.407Z,101538.22
2022-07-26T18:49:50.321Z,101538.22
2022-07-26T18:52:28.331Z,101541.47
2022-07-26T18:54:58.568Z,101536.56
2022-07-26T18:57:26.549Z,101542.84
2022-07-26T18:59:54.521Z,101544.84
2022-07-26T19:02:22.481Z,101543.84
2022-07-26T19:04:50.457Z,101548.53
2022-07-26T19:07:18.336Z,101546.69
2022-07-26T19:09:47.692Z,101550.25
2022-07-26T19:12:15.924Z,101541.41
2022-07-26T19:14:43.836Z,101548.75
2022-07-26T19:17:11.830Z,101546.34
2022-07-26T19:19:40.250Z,101539.47
2022-07-26T19:22:08.206Z,101540.09
2022-07-26T19:24:37.047Z,101542.91
2022-07-26T19:27:06.453Z,101545.00
2022-07-26T19:29:34.414Z,101551.50
2022-07-26T19:32:02.491Z,101553.22
2022-07-26T19:34:30.478Z,101548.19
2022-07-26T19:36:58.560Z,101555.56
2022-07-26T19:39:26.526Z,101557.53
2022-07-26T19:41:54.801Z,101561.22
2022-07-26T19:44:24.096Z,101568.44
2022-07-26T19:46:57.298Z,101571.16
2022-07-26T19:49:26.193Z,101559.88
2022-07-26T19:51:54.234Z,101558.50
2022-07-26T19:54:22.998Z,101571.50
2022-07-26T19:56:50.941Z,101565.34
2022-07-26T19:59:23.395Z,101567.44
2022-07-26T20:01:56.569Z,101578.38
2022-07-26T20:04:26.468Z,101579.59
2022-07-26T20:06:55.197Z,101566.22
2022-07-26T20:09:23.253Z,101574.47
2022-07-26T20:11:51.929Z,101562.31
2022-07-26T20:14:20.395Z,101567.34
2022-07-26T20:16:52.793Z,101574.81
2022-07-26T20:19:28.084Z,101570.03
2022-07-26T20:21:56.356Z,101569.03
2022-07-26T20:24:24.281Z,101580.34
2022-07-26T20:26:52.245Z,101580.47
2022-07-26T20:29:20.318Z,101586.59
2022-07-26T20:31:48.274Z,101575.81
2022-07-26T20:34:16.360Z,101584.16
2022-07-26T20:36:45.662Z,101585.88
2022-07-26T20:39:15.248Z,101581.66
2022-07-26T20:41:43.650Z,101588.78
2022-07-26T20:44:12.397Z,101580.47
2022-07-26T20:46:41.851Z,101585.00
2022-07-26T20:49:11.004Z,101591.47
2022-07-26T20:51:39.292Z,101586.09
2022-07-26T20:54:10.382Z,101588.63
2022-07-26T20:56:38.625Z,101593.28
2022-07-26T20:59:07.090Z,101588.88
2022-07-26T21:01:35.192Z,101595.38
2022-07-26T21:04:03.265Z,101593.00
2022-07-26T21:06:33.199Z,101598.31
2022-07-26T21:09:09.666Z,101590.06
2022-07-26T21:11:39.842Z,101589.66
2022-07-26T21:14:08.153Z,101593.81
2022-07-26T21:16:36.528Z,101601.53
2022-07-26T21:19:05.427Z,101593.03
2022-07-26T21:21:34.896Z,101594.06
2022-07-26T21:24:02.808Z,101601.66
2022-07-26T21:26:30.853Z,101596.94
2022-07-26T21:29:00.329Z,101594.94
2022-07-26T21:31:28.412Z,101597.63
2022-07-26T21:33:56.605Z,101602.19
2022-07-26T21:36:24.672Z,101601.56
2022-07-26T21:38:52.600Z,101591.75
2022-07-26T21:41:20.944Z,101600.84
2022-07-26T21:43:49.065Z,101605.22
2022-07-26T21:46:18.749Z,101598.34
2022-07-26T21:48:46.821Z,101603.91
2022-07-26T21:51:15.017Z,101610.78
2022-07-26T21:53:43.023Z,101605.38
2022-07-26T21:56:11.551Z,101601.34
2022-07-26T21:58:40.107Z,101601.72
2022-07-26T22:01:11.381Z,101606.63
2022-07-26T22:03:42.248Z,101597.06
2022-07-26T22:06:11.411Z,101605.28
2022-07-26T22:08:39.950Z,101599.16
2022-07-26T22:11:12.715Z,101603.19
2022-07-26T22:13:40.975Z,101599.00
2022-07-26T22:16:09.247Z,101600.00
2022-07-26T22:18:41.602Z,101599.88
2022-07-26T22:21:10.379Z,101604.53
2022-07-26T22:23:38.357Z,101604.41
2022-07-26T22:26:09.515Z,101603.69
2022-07-26T22:28:38.389Z,101605.63
2022-07-26T22:31:06.663Z,101607.34
2022-07-26T22:33:34.750Z,101608.44
2022-07-26T22:36:04.674Z,101608.78
2022-07-26T22:38:32.851Z,101600.97
2022-07-26T22:41:00.998Z,101608.91
2022-07-26T22:43:28.914Z,101602.91
2022-07-26T22:45:57.211Z,101598.72
2022-07-26T22:48:25.747Z,101601.63
2022-07-26T22:50:53.984Z,101594.78
2022-07-26T22:53:23.333Z,101598.31
2022-07-26T22:55:51.646Z,101600.81
2022-07-26T22:58:20.041Z,101605.31
2022-07-26T23:00:48.387Z,101601.38
2022-07-26T23:03:20.256Z,101603.28
2022-07-26T23:05:50.361Z,101616.31
2022-07-26T23:11:10.006Z,101602.22
2022-07-26T23:13:40.888Z,101601.97
2022-07-26T23:16:09.209Z,101601.72
2022-07-26T23:18:37.682Z,101604.66
2022-07-26T23:21:05.877Z,101607.59
2022-07-26T23:23:33.929Z,101598.34
2022-07-26T23:26:02.106Z,101598.59
2022-07-26T23:28:37.133Z,101599.66
2022-07-26T23:31:08.984Z,101595.34
2022-07-26T23:33:52.330Z,101596.44
2022-07-26T23:36:23.740Z,101598.38
2022-07-26T23:38:52.459Z,101601.19
2022-07-26T23:41:20.431Z,101588.94
2022-07-26T23:43:49.967Z,101597.34
2022-07-26T23:46:18.511Z,101592.69
2022-07-26T23:48:47.215Z,101592.94
2022-07-26T23:51:15.263Z,101595.25
2022-07-26T23:53:43.518Z,101590.94
2022-07-26T23:56:11.543Z,101598.03
2022-07-26T23:58:39.711Z,101598.72
